sensor_id;sensor_type;location;lat;lon;timestamp;pressure;altitude;pressure_sealevel;temperature;humidity
22259;BME280;11298;46.034;14.496;2022-12-18T00:02:06;99488.41;;;2.38;94.71
22259;BME280;11298;46.034;14.496;2022-12-18T00:04:33;99491.09;;;2.38;94.83
22259;BME280;11298;46.034;14.496;2022-12-18T00:07:00;99495.47;;;2.39;94.94
22259;BME280;11298;46.034;14.496;2022-12-18T00:09:27;99512.53;;;2.38;94.91
22259;BME280;11298;46.034;14.496;2022-12-18T00:12:04;99508.03;;;2.38;95.03
22259;BME280;11298;46.034;14.496;2022-12-18T00:14:44;99504.38;;;2.39;94.98
22259;BME280;11298;46.034;14.496;2022-12-18T00:17:10;99510.69;;;2.38;95.12
22259;BME280;11298;46.034;14.496;2022-12-18T00:19:37;99521.44;;;2.38;94.83
22259;BME280;11298;46.034;14.496;2022-12-18T00:22:04;99511.81;;;2.35;95.02
22259;BME280;11298;46.034;14.496;2022-12-18T00:24:32;99505.84;;;2.32;95.20
22259;BME280;11298;46.034;14.496;2022-12-18T00:26:59;99510.38;;;2.31;95.37
22259;BME280;11298;46.034;14.496;2022-12-18T00:29:26;99519.38;;;2.30;95.25
22259;BME280;11298;46.034;14.496;2022-12-18T00:31:52;99521.94;;;2.32;95.33
22259;BME280;11298;46.034;14.496;2022-12-18T00:34:19;99529.00;;;2.33;95.31
22259;BME280;11298;46.034;14.496;2022-12-18T00:36:47;99522.78;;;2.32;95.35
22259;BME280;11298;46.034;14.496;2022-12-18T00:39:14;99526.19;;;2.34;95.57
22259;BME280;11298;46.034;14.496;2022-12-18T00:41:43;99534.09;;;2.36;95.64
22259;BME280;11298;46.034;14.496;2022-12-18T00:44:29;99543.84;;;2.37;95.57
22259;BME280;11298;46.034;14.496;2022-12-18T00:46:56;99540.31;;;2.37;95.56
22259;BME280;11298;46.034;14.496;2022-12-18T00:49:23;99534.94;;;2.37;95.50
22259;BME280;11298;46.034;14.496;2022-12-18T00:51:50;99534.09;;;2.36;95.42
22259;BME280;11298;46.034;14.496;2022-12-18T00:54:17;99539.47;;;2.36;95.69
22259;BME280;11298;46.034;14.496;2022-12-18T00:56:44;99537.88;;;2.33;95.52
22259;BME280;11298;46.034;14.496;2022-12-18T00:59:18;99527.56;;;2.29;95.91
22259;BME280;11298;46.034;14.496;2022-12-18T01:01:46;99534.88;;;2.27;95.77
22259;BME280;11298;46.034;14.496;2022-12-18T01:04:13;99539.63;;;2.23;95.77
22259;BME280;11298;46.034;14.496;2022-12-18T01:06:43;99539.41;;;2.15;95.86
22259;BME280;11298;46.034;14.496;2022-12-18T01:09:10;99542.88;;;2.06;95.83
22259;BME280;11298;46.034;14.496;2022-12-18T01:11:37;99538.03;;;2.00;95.98
22259;BME280;11298;46.034;14.496;2022-12-18T01:14:04;99544.88;;;1.93;96.12
22259;BME280;11298;46.034;14.496;2022-12-18T01:16:30;99543.41;;;1.89;96.38
22259;BME280;11298;46.034;14.496;2022-12-18T01:18:57;99542.69;;;1.87;96.33
22259;BME280;11298;46.034;14.496;2022-12-18T01:21:26;99542.09;;;1.83;96.42
22259;BME280;11298;46.034;14.496;2022-12-18T01:23:53;99550.47;;;1.79;96.07
22259;BME280;11298;46.034;14.496;2022-12-18T01:26:22;99551.88;;;1.73;96.20
22259;BME280;11298;46.034;14.496;2022-12-18T01:28:49;99555.75;;;1.69;96.28
22259;BME280;11298;46.034;14.496;2022-12-18T01:31:20;99563.19;;;1.65;96.35
22259;BME280;11298;46.034;14.496;2022-12-18T01:33:48;99559.06;;;1.61;96.33
22259;BME280;11298;46.034;14.496;2022-12-18T01:36:19;99565.50;;;1.59;96.43
22259;BME280;11298;46.034;14.496;2022-12-18T01:38:46;99555.03;;;1.56;96.44
22259;BME280;11298;46.034;14.496;2022-12-18T01:41:14;99562.94;;;1.57;96.45
22259;BME280;11298;46.034;14.496;2022-12-18T01:43:43;99555.91;;;1.56;96.55
22259;BME280;11298;46.034;14.496;2022-12-18T01:46:10;99554.19;;;1.55;96.52
22259;BME280;11298;46.034;14.496;2022-12-18T01:48:37;99556.88;;;1.55;96.26
22259;BME280;11298;46.034;14.496;2022-12-18T01:51:05;99558.69;;;1.55;96.56
22259;BME280;11298;46.034;14.496;2022-12-18T01:53:33;99565.88;;;1.54;96.30
22259;BME280;11298;46.034;14.496;2022-12-18T01:56:00;99577.31;;;1.56;96.53
22259;BME280;11298;46.034;14.496;2022-12-18T01:58:47;99573.66;;;1.57;96.32
22259;BME280;11298;46.034;14.496;2022-12-18T02:01:16;99577.91;;;1.60;96.29
22259;BME280;11298;46.034;14.496;2022-12-18T02:03:43;99579.63;;;1.61;96.33
22259;BME280;11298;46.034;14.496;2022-12-18T02:06:15;99590.19;;;1.62;96.42
22259;BME280;11298;46.034;14.496;2022-12-18T02:14:20;99588.13;;;1.66;96.22
22259;BME280;11298;46.034;14.496;2022-12-18T02:17:04;99593.50;;;1.66;96.34
22259;BME280;11298;46.034;14.496;2022-12-18T02:24:51;99604.19;;;1.66;96.07
22259;BME280;11298;46.034;14.496;2022-12-18T02:27:21;99612.34;;;1.64;96.25
22259;BME280;11298;46.034;14.496;2022-12-18T02:29:52;99603.59;;;1.62;96.36
22259;BME280;11298;46.034;14.496;2022-12-18T02:32:28;99608.34;;;1.59;96.24
22259;BME280;11298;46.034;14.496;2022-12-18T02:34:56;99615.75;;;1.55;96.25
22259;BME280;11298;46.034;14.496;2022-12-18T02:37:27;99607.97;;;1.52;96.29
22259;BME280;11298;46.034;14.496;2022-12-18T02:39:57;99602.84;;;1.49;96.34
22259;BME280;11298;46.034;14.496;2022-12-18T02:42:24;99604.81;;;1.47;96.30
22259;BME280;11298;46.034;14.496;2022-12-18T02:44:52;99609.53;;;1.44;96.50
22259;BME280;11298;46.034;14.496;2022-12-18T02:47:24;99604.31;;;1.42;96.66
22259;BME280;11298;46.034;14.496;2022-12-18T02:57:57;99621.22;;;1.31;96.72
22259;BME280;11298;46.034;14.496;2022-12-18T03:00:36;99619.16;;;1.24;97.19
22259;BME280;11298;46.034;14.496;2022-12-18T03:03:16;99629.84;;;1.24;97.28
22259;BME280;11298;46.034;14.496;2022-12-18T03:06:08;99634.22;;;1.25;97.03
22259;BME280;11298;46.034;14.496;2022-12-18T03:08:35;99633.25;;;1.26;97.31
22259;BME280;11298;46.034;14.496;2022-12-18T03:11:05;99636.06;;;1.24;97.34
22259;BME280;11298;46.034;14.496;2022-12-18T03:16:15;99636.44;;;1.64;95.26
22259;BME280;11298;46.034;14.496;2022-12-18T03:18:55;99640.59;;;1.68;94.48
22259;BME280;11298;46.034;14.496;2022-12-18T03:21:25;99631.81;;;1.66;93.99
22259;BME280;11298;46.034;14.496;2022-12-18T03:23:55;99636.31;;;1.66;93.54
22259;BME280;11298;46.034;14.496;2022-12-18T03:26:25;99632.06;;;1.63;93.60
22259;BME280;11298;46.034;14.496;2022-12-18T03:28:59;99637.50;;;1.40;93.61
22259;BME280;11298;46.034;14.496;2022-12-18T03:31:30;99632.97;;;1.07;95.47
22259;BME280;11298;46.034;14.496;2022-12-18T03:33:58;99630.53;;;0.92;96.28
22259;BME280;11298;46.034;14.496;2022-12-18T03:36:37;99626.84;;;0.82;96.73
22259;BME280;11298;46.034;14.496;2022-12-18T03:39:04;99625.50;;;0.77;96.94
22259;BME280;11298;46.034;14.496;2022-12-18T03:41:41;99630.22;;;0.73;97.04
22259;BME280;11298;46.034;14.496;2022-12-18T03:44:29;99633.38;;;0.67;96.97
22259;BME280;11298;46.034;14.496;2022-12-18T03:47:04;99630.94;;;0.64;97.23
22259;BME280;11298;46.034;14.496;2022-12-18T03:52:21;99643.16;;;0.55;97.29
22259;BME280;11298;46.034;14.496;2022-12-18T03:54:52;99640.84;;;0.51;97.10
22259;BME280;11298;46.034;14.496;2022-12-18T03:57:22;99641.06;;;0.48;97.24
22259;BME280;11298;46.034;14.496;2022-12-18T03:59:54;99649.94;;;0.48;97.30
22259;BME280;11298;46.034;14.496;2022-12-18T04:02:27;99656.13;;;0.49;97.46
22259;BME280;11298;46.034;14.496;2022-12-18T04:04:59;99668.66;;;0.48;97.23
22259;BME280;11298;46.034;14.496;2022-12-18T04:07:28;99672.16;;;0.49;97.34
22259;BME280;11298;46.034;14.496;2022-12-18T04:09:56;99680.22;;;0.84;96.32
22259;BME280;11298;46.034;14.496;2022-12-18T04:12:26;99677.84;;;1.03;94.99
22259;BME280;11298;46.034;14.496;2022-12-18T04:14:53;99672.84;;;1.10;94.00
22259;BME280;11298;46.034;14.496;2022-12-18T04:17:21;99676.28;;;1.12;93.80
22259;BME280;11298;46.034;14.496;2022-12-18T04:19:48;99677.13;;;1.12;93.37
22259;BME280;11298;46.034;14.496;2022-12-18T04:22:16;99678.22;;;1.10;93.39
22259;BME280;11298;46.034;14.496;2022-12-18T04:24:46;99683.78;;;1.07;93.07
22259;BME280;11298;46.034;14.496;2022-12-18T04:27:21;99694.88;;;1.02;93.29
22259;BME280;11298;46.034;14.496;2022-12-18T04:29:49;99694.25;;;0.98;93.02
22259;BME280;11298;46.034;14.496;2022-12-18T04:32:17;99688.16;;;0.96;93.17
22259;BME280;11298;46.034;14.496;2022-12-18T04:34:46;99685.72;;;0.93;93.05
22259;BME280;11298;46.034;14.496;2022-12-18T04:37:15;99693.22;;;0.88;92.80
22259;BME280;11298;46.034;14.496;2022-12-18T04:39:43;99692.59;;;0.85;92.95
22259;BME280;11298;46.034;14.496;2022-12-18T04:42:18;99693.69;;;0.82;92.98
22259;BME280;11298;46.034;14.496;2022-12-18T04:44:45;99692.09;;;0.80;92.81
22259;BME280;11298;46.034;14.496;2022-12-18T04:47:12;99709.97;;;0.79;93.04
22259;BME280;11298;46.034;14.496;2022-12-18T04:49:39;99707.41;;;0.78;93.06
22259;BME280;11298;46.034;14.496;2022-12-18T04:52:06;99718.09;;;0.78;92.99
22259;BME280;11298;46.034;14.496;2022-12-18T04:54:33;99720.88;;;0.76;92.97
22259;BME280;11298;46.034;14.496;2022-12-18T04:57:00;99724.28;;;0.78;92.83
22259;BME280;11298;46.034;14.496;2022-12-18T04:59:26;99725.16;;;0.79;92.82
22259;BME280;11298;46.034;14.496;2022-12-18T05:01:53;99738.19;;;0.83;92.81
22259;BME280;11298;46.034;14.496;2022-12-18T05:04:20;99739.66;;;0.87;92.63
22259;BME280;11298;46.034;14.496;2022-12-18T05:06:47;99747.22;;;0.93;92.80
22259;BME280;11298;46.034;14.496;2022-12-18T05:09:14;99744.94;;;1.00;92.73
22259;BME280;11298;46.034;14.496;2022-12-18T05:11:41;99747.88;;;1.08;92.53
22259;BME280;11298;46.034;14.496;2022-12-18T05:14:07;99748.25;;;1.15;92.46
22259;BME280;11298;46.034;14.496;2022-12-18T05:16:34;99750.47;;;1.21;92.49
22259;BME280;11298;46.034;14.496;2022-12-18T05:19:01;99761.56;;;1.27;92.33
22259;BME280;11298;46.034;14.496;2022-12-18T05:21:28;99753.81;;;1.36;92.44
22259;BME280;11298;46.034;14.496;2022-12-18T05:23:54;99755.03;;;1.43;92.20
22259;BME280;11298;46.034;14.496;2022-12-18T05:26:21;99759.78;;;1.50;92.30
22259;BME280;11298;46.034;14.496;2022-12-18T05:28:48;99753.00;;;1.57;92.34
22259;BME280;11298;46.034;14.496;2022-12-18T05:31:15;99751.56;;;1.64;92.44
22259;BME280;11298;46.034;14.496;2022-12-18T05:33:42;99758.16;;;1.72;92.36
22259;BME280;11298;46.034;14.496;2022-12-18T05:36:09;99761.28;;;1.77;92.21
22259;BME280;11298;46.034;14.496;2022-12-18T05:38:38;99772.63;;;1.80;92.27
22259;BME280;11298;46.034;14.496;2022-12-18T05:41:06;99765.94;;;1.86;92.38
22259;BME280;11298;46.034;14.496;2022-12-18T05:43:34;99756.81;;;1.88;92.16
22259;BME280;11298;46.034;14.496;2022-12-18T05:46:03;99759.13;;;1.93;92.14
22259;BME280;11298;46.034;14.496;2022-12-18T05:48:30;99754.50;;;1.95;92.26
22259;BME280;11298;46.034;14.496;2022-12-18T05:51:02;99770.34;;;1.98;92.13
22259;BME280;11298;46.034;14.496;2022-12-18T05:53:29;99770.09;;;2.01;92.40
22259;BME280;11298;46.034;14.496;2022-12-18T05:55:59;99773.63;;;2.01;92.17
22259;BME280;11298;46.034;14.496;2022-12-18T05:58:26;99776.44;;;2.00;92.40
22259;BME280;11298;46.034;14.496;2022-12-18T06:00:53;99777.41;;;1.99;92.15
22259;BME280;11298;46.034;14.496;2022-12-18T06:03:20;99785.19;;;2.02;92.15
22259;BME280;11298;46.034;14.496;2022-12-18T06:05:46;99784.09;;;2.05;92.41
22259;BME280;11298;46.034;14.496;2022-12-18T06:08:13;99783.97;;;2.06;92.38
22259;BME280;11298;46.034;14.496;2022-12-18T06:10:41;99792.72;;;2.08;92.23
22259;BME280;11298;46.034;14.496;2022-12-18T06:13:08;99795.16;;;2.11;92.30
22259;BME280;11298;46.034;14.496;2022-12-18T06:15:38;99793.22;;;2.13;92.44
22259;BME280;11298;46.034;14.496;2022-12-18T06:18:05;99799.31;;;2.15;92.06
22259;BME280;11298;46.034;14.496;2022-12-18T06:20:32;99798.34;;;2.16;91.96
22259;BME280;11298;46.034;14.496;2022-12-18T06:22:59;99804.66;;;2.15;92.23
22259;BME280;11298;46.034;14.496;2022-12-18T06:25:26;99800.16;;;2.16;92.34
22259;BME280;11298;46.034;14.496;2022-12-18T06:27:53;99795.66;;;2.16;92.09
22259;BME280;11298;46.034;14.496;2022-12-18T06:30:20;99795.66;;;2.16;92.34
22259;BME280;11298;46.034;14.496;2022-12-18T06:32:49;99797.34;;;2.17;92.14
22259;BME280;11298;46.034;14.496;2022-12-18T06:35:22;99788.34;;;2.18;92.12
22259;BME280;11298;46.034;14.496;2022-12-18T06:37:49;99796.50;;;2.17;92.02
22259;BME280;11298;46.034;14.496;2022-12-18T06:40:16;99795.66;;;2.16;92.06
22259;BME280;11298;46.034;14.496;2022-12-18T06:42:43;99801.88;;;2.17;92.02
22259;BME280;11298;46.034;14.496;2022-12-18T06:45:09;99806.38;;;2.16;92.06
22259;BME280;11298;46.034;14.496;2022-12-18T06:47:40;99811.97;;;2.13;92.26
22259;BME280;11298;46.034;14.496;2022-12-18T06:50:07;99827.19;;;2.13;91.95
22259;BME280;11298;46.034;14.496;2022-12-18T06:52:33;99826.47;;;2.11;91.99
22259;BME280;11298;46.034;14.496;2022-12-18T06:55:00;99831.81;;;2.11;92.10
22259;BME280;11298;46.034;14.496;2022-12-18T06:57:27;99830.97;;;2.10;92.00
22259;BME280;11298;46.034;14.496;2022-12-18T06:59:54;99831.81;;;2.11;92.10
22259;BME280;11298;46.034;14.496;2022-12-18T07:02:20;99843.50;;;2.10;91.96
22259;BME280;11298;46.034;14.496;2022-12-18T07:04:48;99850.56;;;2.11;92.09
22259;BME280;11298;46.034;14.496;2022-12-18T07:07:16;99841.56;;;2.12;91.82
22259;BME280;11298;46.034;14.496;2022-12-18T07:09:43;99844.13;;;2.13;91.90
22259;BME280;11298;46.034;14.496;2022-12-18T07:12:09;99844.97;;;2.14;91.88
22259;BME280;11298;46.034;14.496;2022-12-18T07:14:36;99849.25;;;2.16;91.75
22259;BME280;11298;46.034;14.496;2022-12-18T07:17:03;99850.94;;;2.17;91.81
22259;BME280;11298;46.034;14.496;2022-12-18T07:19:31;99841.94;;;2.18;91.92
22259;BME280;11298;46.034;14.496;2022-12-18T07:21:58;99851.69;;;2.19;91.80
22259;BME280;11298;46.034;14.496;2022-12-18T07:24:25;99857.03;;;2.19;91.71
22259;BME280;11298;46.034;14.496;2022-12-18T07:26:52;99859.47;;;2.22;91.65
22259;BME280;11298;46.034;14.496;2022-12-18T07:29:19;99866.56;;;2.23;91.72
22259;BME280;11298;46.034;14.496;2022-12-18T07:31:45;99869.13;;;2.25;91.82
22259;BME280;11298;46.034;14.496;2022-12-18T07:34:13;99869.84;;;2.27;91.49
22259;BME280;11298;46.034;14.496;2022-12-18T07:36:40;99871.56;;;2.28;91.65
22259;BME280;11298;46.034;14.496;2022-12-18T07:39:07;99884.72;;;2.31;91.56
22259;BME280;11298;46.034;14.496;2022-12-18T07:41:34;99888.97;;;2.33;91.46
22259;BME280;11298;46.034;14.496;2022-12-18T07:44:10;99894.00;;;2.38;91.47
22259;BME280;11298;46.034;14.496;2022-12-18T07:46:37;99891.19;;;2.40;91.29
22259;BME280;11298;46.034;14.496;2022-12-18T07:49:04;99899.81;;;2.43;91.45
22259;BME280;11298;46.034;14.496;2022-12-18T07:51:31;99901.28;;;2.47;91.36
22259;BME280;11298;46.034;14.496;2022-12-18T07:53:57;99903.59;;;2.52;91.34
22259;BME280;11298;46.034;14.496;2022-12-18T07:56:24;99914.09;;;2.55;91.31
22259;BME280;11298;46.034;14.496;2022-12-18T07:58:55;99920.06;;;2.58;91.15
22259;BME280;11298;46.034;14.496;2022-12-18T08:01:22;99926.03;;;2.62;91.07
22259;BME280;11298;46.034;14.496;2022-12-18T08:03:49;99922.16;;;2.66;91.09
22259;BME280;11298;46.034;14.496;2022-12-18T08:06:18;99924.59;;;2.69;90.92
22259;BME280;11298;46.034;14.496;2022-12-18T08:08:53;99925.31;;;2.71;91.18
22259;BME280;11298;46.034;14.496;2022-12-18T08:11:20;99930.44;;;2.74;90.97
22259;BME280;11298;46.034;14.496;2022-12-18T08:13:47;99943.00;;;2.74;91.07
22259;BME280;11298;46.034;14.496;2022-12-18T08:16:15;99943.63;;;2.77;91.10
22259;BME280;11298;46.034;14.496;2022-12-18T08:18:42;99944.19;;;2.81;90.92
22259;BME280;11298;46.034;14.496;2022-12-18T08:21:10;99943.84;;;2.85;90.97
22259;BME280;11298;46.034;14.496;2022-12-18T08:23:37;99939.94;;;2.89;90.75
22259;BME280;11298;46.034;14.496;2022-12-18T08:26:09;99952.13;;;2.93;91.05
22259;BME280;11298;46.034;14.496;2022-12-18T08:28:36;99943.72;;;2.98;90.84
22259;BME280;11298;46.034;14.496;2022-12-18T08:31:03;99938.97;;;3.01;90.84
22259;BME280;11298;46.034;14.496;2022-12-18T08:33:30;99943.34;;;3.02;90.64
22259;BME280;11298;46.034;14.496;2022-12-18T08:36:00;99948.00;;;3.00;90.46
22259;BME280;11298;46.034;14.496;2022-12-18T08:38:27;99945.44;;;2.99;90.50
22259;BME280;11298;46.034;14.496;2022-12-18T08:41:00;99949.69;;;3.01;90.08
22259;BME280;11298;46.034;14.496;2022-12-18T08:43:28;99946.88;;;3.03;90.17
22259;BME280;11298;46.034;14.496;2022-12-18T08:46:13;99948.00;;;3.00;90.09
22259;BME280;11298;46.034;14.496;2022-12-18T08:48:40;99948.97;;;2.99;89.82
22259;BME280;11298;46.034;14.496;2022-12-18T08:51:07;99957.25;;;3.08;90.09
22259;BME280;11298;46.034;14.496;2022-12-18T08:53:36;99953.81;;;3.17;89.99
22259;BME280;11298;46.034;14.496;2022-12-18T08:56:03;99960.41;;;3.24;89.53
22259;BME280;11298;46.034;14.496;2022-12-18T08:58:31;99976.25;;;3.27;89.73
22259;BME280;11298;46.034;14.496;2022-12-18T09:01:04;99979.66;;;3.29;89.79
22259;BME280;11298;46.034;14.496;2022-12-18T09:03:32;99980.41;;;3.31;89.70
22259;BME280;11298;46.034;14.496;2022-12-18T09:05:59;99968.69;;;3.32;89.71
22259;BME280;11298;46.034;14.496;2022-12-18T09:08:26;99976.63;;;3.33;89.29
22259;BME280;11298;46.034;14.496;2022-12-18T09:10:53;99985.66;;;3.32;89.28
22259;BME280;11298;46.034;14.496;2022-12-18T09:13:19;99988.22;;;3.34;89.29
22259;BME280;11298;46.034;14.496;2022-12-18T09:15:47;99983.56;;;3.36;89.43
22259;BME280;11298;46.034;14.496;2022-12-18T09:18:15;99983.56;;;3.36;89.23
22259;BME280;11298;46.034;14.496;2022-12-18T09:20:43;99990.53;;;3.39;89.16
22259;BME280;11298;46.034;14.496;2022-12-18T09:23:10;99996.75;;;3.39;89.16
22259;BME280;11298;46.034;14.496;2022-12-18T09:25:37;99990.53;;;3.39;89.21
22259;BME280;11298;46.034;14.496;2022-12-18T09:28:05;99987.72;;;3.40;89.04
22259;BME280;11298;46.034;14.496;2022-12-18T09:30:32;99986.75;;;3.41;88.84
22259;BME280;11298;46.034;14.496;2022-12-18T09:33:02;99984.78;;;3.43;88.80
22259;BME280;11298;46.034;14.496;2022-12-18T09:35:31;99981.13;;;3.44;88.78
22259;BME280;11298;46.034;14.496;2022-12-18T09:37:59;99991.47;;;3.49;88.74
22259;BME280;11298;46.034;14.496;2022-12-18T09:40:34;99977.91;;;3.50;88.85
22259;BME280;11298;46.034;14.496;2022-12-18T09:43:03;99970.84;;;3.49;88.80
22259;BME280;11298;46.034;14.496;2022-12-18T09:45:43;99980.63;;;3.39;88.58
22259;BME280;11298;46.034;14.496;2022-12-18T09:48:15;99990.16;;;3.32;88.46
22259;BME280;11298;46.034;14.496;2022-12-18T09:50:45;99992.59;;;3.35;88.60
22259;BME280;11298;46.034;14.496;2022-12-18T09:53:15;99982.59;;;3.37;88.44
22259;BME280;11298;46.034;14.496;2022-12-18T09:55:45;99989.41;;;3.41;88.52
22259;BME280;11298;46.034;14.496;2022-12-18T09:58:15;99985.50;;;3.45;88.16
22259;BME280;11298;46.034;14.496;2022-12-18T10:00:43;99997.22;;;3.44;88.15
22259;BME280;11298;46.034;14.496;2022-12-18T10:03:14;99996.25;;;3.45;87.95
22259;BME280;11298;46.034;14.496;2022-12-18T10:08:30;99982.09;;;3.43;87.43
22259;BME280;11298;46.034;14.496;2022-12-18T10:11:02;99975.75;;;3.44;87.13
22259;BME280;11298;46.034;14.496;2022-12-18T10:13:41;99978.69;;;3.41;85.86
22259;BME280;11298;46.034;14.496;2022-12-18T10:16:13;99972.59;;;3.39;85.26
22259;BME280;11298;46.034;14.496;2022-12-18T10:19:03;99977.81;;;3.41;84.56
22259;BME280;11298;46.034;14.496;2022-12-18T10:24:37;99985.22;;;3.48;83.92
22259;BME280;11298;46.034;14.496;2022-12-18T10:27:11;99979.88;;;3.48;83.43
22259;BME280;11298;46.034;14.496;2022-12-18T10:29:39;99976.31;;;3.48;82.88
22259;BME280;11298;46.034;14.496;2022-12-18T10:32:07;99976.06;;;3.51;82.92
22259;BME280;11298;46.034;14.496;2022-12-18T10:34:36;99970.59;;;3.52;82.61
22259;BME280;11298;46.034;14.496;2022-12-18T10:37:03;99974.25;;;3.51;82.15
22259;BME280;11298;46.034;14.496;2022-12-18T10:39:33;99962.78;;;3.49;81.63
22259;BME280;11298;46.034;14.496;2022-12-18T10:42:09;99956.94;;;3.44;80.88
22259;BME280;11298;46.034;14.496;2022-12-18T10:44:36;99955.97;;;3.45;80.95
22259;BME280;11298;46.034;14.496;2022-12-18T10:47:03;99953.00;;;3.48;80.70
22259;BME280;11298;46.034;14.496;2022-12-18T10:49:37;99951.31;;;3.47;80.21
22259;BME280;11298;46.034;14.496;2022-12-18T10:52:11;99959.34;;;3.47;80.18
22259;BME280;11298;46.034;14.496;2022-12-18T10:54:45;99965.75;;;3.46;79.85
22259;BME280;11298;46.034;14.496;2022-12-18T10:57:32;99970.50;;;3.43;79.07
22259;BME280;11298;46.034;14.496;2022-12-18T11:00:01;99962.44;;;3.43;79.15
22259;BME280;11298;46.034;14.496;2022-12-18T11:02:39;99955.75;;;3.37;78.76
22259;BME280;11298;46.034;14.496;2022-12-18T11:05:23;99953.06;;;3.37;78.98
22259;BME280;11298;46.034;14.496;2022-12-18T11:07:51;99954.53;;;3.41;78.75
22259;BME280;11298;46.034;14.496;2022-12-18T11:10:21;99955.38;;;3.42;78.44
22259;BME280;11298;46.034;14.496;2022-12-18T11:12:48;99955.25;;;3.43;78.04
22259;BME280;11298;46.034;14.496;2022-12-18T11:15:16;99958.31;;;3.39;77.62
22259;BME280;11298;46.034;14.496;2022-12-18T11:17:45;99948.66;;;3.36;77.61
22259;BME280;11298;46.034;14.496;2022-12-18T11:20:33;99940.25;;;3.41;77.78
22259;BME280;11298;46.034;14.496;2022-12-18T11:23:05;99946.78;;;3.48;77.57
22259;BME280;11298;46.034;14.496;2022-12-18T11:25:38;99951.41;;;3.57;77.54
22259;BME280;11298;46.034;14.496;2022-12-18T11:28:25;99941.50;;;3.57;76.66
22259;BME280;11298;46.034;14.496;2022-12-18T11:33:38;99942.88;;;3.52;75.28
22259;BME280;11298;46.034;14.496;2022-12-18T11:36:28;99946.53;;;3.51;74.75
22259;BME280;11298;46.034;14.496;2022-12-18T11:38:57;99937.38;;;3.53;74.94
22259;BME280;11298;46.034;14.496;2022-12-18T11:41:30;99945.53;;;3.63;74.62
22259;BME280;11298;46.034;14.496;2022-12-18T11:47:31;99935.91;;;3.60;73.48
22259;BME280;11298;46.034;14.496;2022-12-18T11:50:03;99926.84;;;3.61;73.31
22259;BME280;11298;46.034;14.496;2022-12-18T11:52:38;99925.84;;;3.74;73.56
22259;BME280;11298;46.034;14.496;2022-12-18T11:55:13;99918.25;;;3.79;73.68
22259;BME280;11298;46.034;14.496;2022-12-18T12:00:18;99924.41;;;3.69;73.03
22259;BME280;11298;46.034;14.496;2022-12-18T12:02:49;99928.69;;;3.61;73.12
22259;BME280;11298;46.034;14.496;2022-12-18T12:05:58;99930.28;;;3.63;73.40
22259;BME280;11298;46.034;14.496;2022-12-18T12:21:18;99933.25;;;3.49;72.33
22259;BME280;11298;46.034;14.496;2022-12-18T12:31:49;99932.81;;;3.33;71.84
22259;BME280;11298;46.034;14.496;2022-12-18T12:39:31;99923.28;;;3.29;71.49
22259;BME280;11298;46.034;14.496;2022-12-18T12:42:01;99928.06;;;3.25;71.53
22259;BME280;11298;46.034;14.496;2022-12-18T12:44:51;99937.81;;;3.26;71.32
22259;BME280;11298;46.034;14.496;2022-12-18T12:49:51;99939.91;;;3.23;71.18
22259;BME280;11298;46.034;14.496;2022-12-18T12:52:27;99926.22;;;3.26;71.23
22259;BME280;11298;46.034;14.496;2022-12-18T12:54:57;99932.69;;;3.23;71.17
22259;BME280;11298;46.034;14.496;2022-12-18T12:57:29;99929.03;;;3.24;71.12
22259;BME280;11298;46.034;14.496;2022-12-18T13:00:11;99925.00;;;3.30;71.37
22259;BME280;11298;46.034;14.496;2022-12-18T13:05:22;99927.22;;;3.14;70.78
22259;BME280;11298;46.034;14.496;2022-12-18T13:08:11;99922.81;;;3.13;70.71
22259;BME280;11298;46.034;14.496;2022-12-18T13:10:39;99925.13;;;3.17;70.82
22259;BME280;11298;46.034;14.496;2022-12-18T13:13:10;99926.47;;;3.23;71.09
22259;BME280;11298;46.034;14.496;2022-12-18T13:16:05;99928.19;;;3.24;71.00
22259;BME280;11298;46.034;14.496;2022-12-18T13:18:33;99937.56;;;3.29;70.95
22259;BME280;11298;46.034;14.496;2022-12-18T13:21:02;99941.59;;;3.35;71.14
22259;BME280;11298;46.034;14.496;2022-12-18T13:23:31;99942.81;;;3.42;71.27
22259;BME280;11298;46.034;14.496;2022-12-18T13:26:28;99948.78;;;3.46;71.13
22259;BME280;11298;46.034;14.496;2022-12-18T13:28:55;99965.75;;;3.46;71.30
22259;BME280;11298;46.034;14.496;2022-12-18T13:34:18;99957.53;;;3.48;71.46
22259;BME280;11298;46.034;14.496;2022-12-18T13:36:55;99952.75;;;3.51;71.23
22259;BME280;11298;46.034;14.496;2022-12-18T13:39:24;99958.97;;;3.52;71.49
22259;BME280;11298;46.034;14.496;2022-12-18T13:44:33;99962.31;;;3.44;71.24
22259;BME280;11298;46.034;14.496;2022-12-18T13:47:26;99962.31;;;3.44;71.36
22259;BME280;11298;46.034;14.496;2022-12-18T13:49:54;99955.13;;;3.45;71.38
22259;BME280;11298;46.034;14.496;2022-12-18T13:52:22;99957.69;;;3.46;71.38
22259;BME280;11298;46.034;14.496;2022-12-18T13:54:55;99963.06;;;3.46;71.50
22259;BME280;11298;46.034;14.496;2022-12-18T13:57:30;99959.88;;;3.41;71.48
22259;BME280;11298;46.034;14.496;2022-12-18T13:59:57;99969.53;;;3.32;71.03
22259;BME280;11298;46.034;14.496;2022-12-18T14:02:25;99965.88;;;3.22;70.98
22259;BME280;11298;46.034;14.496;2022-12-18T14:04:53;99961.50;;;3.21;71.02
22259;BME280;11298;46.034;14.496;2022-12-18T14:07:24;99958.56;;;3.24;71.01
22259;BME280;11298;46.034;14.496;2022-12-18T14:09:59;99970.41;;;3.22;70.67
22259;BME280;11298;46.034;14.496;2022-12-18T14:12:48;99966.63;;;3.24;70.72
22259;BME280;11298;46.034;14.496;2022-12-18T14:15:32;99977.22;;;3.26;70.63
22259;BME280;11298;46.034;14.496;2022-12-18T14:20:30;99967.72;;;3.22;70.80
22259;BME280;11298;46.034;14.496;2022-12-18T14:22:58;99968.94;;;3.18;70.53
22259;BME280;11298;46.034;14.496;2022-12-18T14:25:27;99971.28;;;3.11;70.30
22259;BME280;11298;46.034;14.496;2022-12-18T14:30:52;99968.44;;;3.13;70.32
22259;BME280;11298;46.034;14.496;2022-12-18T14:33:24;99961.97;;;3.15;70.41
22259;BME280;11298;46.034;14.496;2022-12-18T14:35:56;99922.25;;;2.98;70.44
22259;BME280;11298;46.034;14.496;2022-12-18T14:40:58;99968.94;;;3.18;70.49